Rhosneigr, United Kingdom
Current Conditions -  °F | °C
As of 7:50 AM on Saturday 29 Nov 2014 (Local Time) from EGOV Reporting Station
Haze Haze  
Wind Chill: 41°   Ceiling: Unl
Heat Index: 41°   Visibility: 2.2mi
Dew Point: 41°   Wind: 3mph
Humidity: 100%   Direction: 80°E
Pressure: 29.77"   Gusts: NA
Location:  53.23°N, 4.52°W
Report Text: EGOV 290750Z AUTO 08003KT 3600 BR FEW090/// 05/05 Q1008
Loading
Personal Weather Stations






























Interactive Weather Map New forecast layout! Learn more

10-Day Weather Forecast

Advertisements
Track Severe Weather on mobile